Time;durP1;ratioP1;P1;durP2;ratioP2;P2;SDS_P1;SDS_P2;PMS_P1;PMS_P2;Temp;Humidity;BMP_temperature;BMP_pressure;BME280_temperature;BME280_humidity;BME280_pressure;Samples;Min_cycle;Max_cycle;Signal;HPM_P1;HPM_P2
2022/08/07 00:01:00;;;;;;;10.97;7.57;;;;;;;;;;5075897;28;20926;-69
2022/08/07 00:03:34;;;;;;;9.03;6.57;;;;;;;;;;5077119;28;20460;-69
2022/08/07 00:06:04;;;;;;;9.90;7.03;;;;;;;;;;5075129;28;20938;-69
2022/08/07 00:08:31;;;;;;;10.03;7.07;;;;;;;;;;5076060;28;20457;-69
2022/08/07 00:10:59;;;;;;;12.33;8.17;;;;;;;;;;5075779;28;20747;-69
2022/08/07 00:13:26;;;;;;;12.87;6.90;;;;;;;;;;5074985;28;20456;-70
2022/08/07 00:15:53;;;;;;;9.27;6.20;;;;;;;;;;5075349;28;20498;-69
2022/08/07 00:18:21;;;;;;;14.40;6.60;;;;;;;;;;5075658;28;20495;-69
2022/08/07 00:20:50;;;;;;;15.20;6.90;;;;;;;;;;5075607;28;20857;-69
2022/08/07 00:23:17;;;;;;;12.17;7.87;;;;;;;;;;5075910;28;20706;-69
2022/08/07 00:25:44;;;;;;;10.73;7.97;;;;;;;;;;5075526;28;20491;-69
2022/08/07 00:28:11;;;;;;;10.90;7.80;;;;;;;;;;5076703;28;20453;-69
2022/08/07 00:30:41;;;;;;;70.73;63.77;;;;;;;;;;5076095;28;20463;-69
2022/08/07 00:33:08;;;;;;;12.33;8.43;;;;;;;;;;5075707;28;20492;-69
2022/08/07 00:35:42;;;;;;;11.67;8.80;;;;;;;;;;5076046;28;20792;-69
2022/08/07 00:38:10;;;;;;;165.00;146.70;;;;;;;;;;5075469;28;20500;-69
2022/08/07 00:40:38;;;;;;;96.27;89.93;;;;;;;;;;5076085;28;20529;-69
2022/08/07 00:43:05;;;;;;;10.53;8.07;;;;;;;;;;5075694;28;20930;-69
2022/08/07 00:45:32;;;;;;;9.83;7.43;;;;;;;;;;5075598;28;20471;-70
2022/08/07 00:48:00;;;;;;;10.30;6.80;;;;;;;;;;5075510;28;20814;-69
2022/08/07 00:50:27;;;;;;;9.63;6.70;;;;;;;;;;5075773;28;20580;-69
2022/08/07 00:52:54;;;;;;;13.00;7.50;;;;;;;;;;5076004;28;20456;-69
2022/08/07 00:55:22;;;;;;;11.03;7.30;;;;;;;;;;5075103;28;20440;-69
2022/08/07 00:57:50;;;;;;;9.90;6.70;;;;;;;;;;5075512;28;20492;-69
2022/08/07 01:00:18;;;;;;;9.40;6.10;;;;;;;;;;5075499;28;20445;-69
2022/08/07 01:02:45;;;;;;;14.40;6.67;;;;;;;;;;5075038;28;20930;-70
2022/08/07 01:05:12;;;;;;;10.37;5.87;;;;;;;;;;5075493;28;20930;-69
2022/08/07 01:07:40;;;;;;;13.00;11.57;;;;;;;;;;5075009;28;20464;-69
2022/08/07 01:10:07;;;;;;;12.40;7.13;;;;;;;;;;5074724;28;20879;-69
2022/08/07 01:12:35;;;;;;;9.57;6.27;;;;;;;;;;5073885;28;20461;-70
2022/08/07 01:15:03;;;;;;;8.70;6.17;;;;;;;;;;5074233;28;20458;-69
2022/08/07 01:17:31;;;;;;;10.10;7.70;;;;;;;;;;5076541;28;20579;-69
2022/08/07 01:20:05;;;;;;;11.93;6.83;;;;;;;;;;5079573;28;20542;-69
2022/08/07 01:22:33;;;;;;;10.03;6.67;;;;;;;;;;5078875;28;20453;-69
2022/08/07 01:25:01;;;;;;;8.40;6.13;;;;;;;;;;5078598;28;20464;-69
2022/08/07 01:27:28;;;;;;;8.10;6.60;;;;;;;;;;5078707;28;20456;-69
2022/08/07 01:29:55;;;;;;;8.97;6.03;;;;;;;;;;5078595;28;20455;-70
2022/08/07 01:32:22;;;;;;;8.63;6.60;;;;;;;;;;5077968;28;20456;-69
2022/08/07 01:34:50;;;;;;;8.67;6.47;;;;;;;;;;5078688;28;20460;-68
2022/08/07 01:37:17;;;;;;;8.13;5.83;;;;;;;;;;5078480;28;20545;-69
2022/08/07 01:39:46;;;;;;;9.77;6.73;;;;;;;;;;5078871;28;20872;-69
2022/08/07 01:42:13;;;;;;;8.77;6.07;;;;;;;;;;5078193;28;20452;-69
2022/08/07 01:44:41;;;;;;;9.20;6.20;;;;;;;;;;5078414;28;20456;-69
2022/08/07 01:47:08;;;;;;;10.53;7.20;;;;;;;;;;5078677;28;20711;-69
2022/08/07 01:49:36;;;;;;;11.90;6.43;;;;;;;;;;5078524;28;20456;-69
2022/08/07 01:52:04;;;;;;;11.97;6.30;;;;;;;;;;5078871;28;20495;-69
2022/08/07 01:54:36;;;;;;;129.03;63.33;;;;;;;;;;5078570;28;20509;-69
2022/08/07 01:57:10;;;;;;;22.30;11.40;;;;;;;;;;5077474;28;20488;-69
2022/08/07 01:59:42;;;;;;;25.50;13.57;;;;;;;;;;5078044;28;21116;-69
2022/08/07 02:02:13;;;;;;;23.73;13.40;;;;;;;;;;5077806;28;20448;-69
2022/08/07 02:04:41;;;;;;;17.53;9.43;;;;;;;;;;5080601;28;20444;-69
2022/08/07 02:07:10;;;;;;;12.17;7.73;;;;;;;;;;5097941;28;20455;-69
2022/08/07 02:09:39;;;;;;;11.70;7.67;;;;;;;;;;5098473;28;20507;-69
2022/08/07 02:12:17;;;;;;;8.93;6.50;;;;;;;;;;5098327;28;20459;-68
2022/08/07 02:14:46;;;;;;;10.00;6.97;;;;;;;;;;5098144;28;20483;-69
2022/08/07 02:17:14;;;;;;;8.87;6.43;;;;;;;;;;5098410;28;20505;-69
2022/08/07 02:19:43;;;;;;;8.87;6.27;;;;;;;;;;5098216;28;20466;-69
2022/08/07 02:22:11;;;;;;;8.60;6.17;;;;;;;;;;5097835;28;20466;-70
2022/08/07 02:24:38;;;;;;;8.47;6.67;;;;;;;;;;5098174;28;20548;-68
2022/08/07 02:27:07;;;;;;;9.27;6.03;;;;;;;;;;5098694;28;20459;-69
2022/08/07 02:29:34;;;;;;;8.10;5.87;;;;;;;;;;5097500;28;20563;-69
2022/08/07 02:32:03;;;;;;;8.80;5.70;;;;;;;;;;5099596;28;20444;-69
2022/08/07 02:34:31;;;;;;;7.80;5.83;;;;;;;;;;5097429;28;20469;-69
2022/08/07 02:36:58;;;;;;;8.43;6.27;;;;;;;;;;5097609;28;20479;-69
2022/08/07 02:39:29;;;;;;;10.93;5.90;;;;;;;;;;5098234;28;20451;-69
2022/08/07 02:41:57;;;;;;;8.77;6.50;;;;;;;;;;5098200;28;20466;-69
2022/08/07 02:44:25;;;;;;;10.70;6.63;;;;;;;;;;5098089;28;20452;-69
2022/08/07 02:46:53;;;;;;;7.77;5.40;;;;;;;;;;5097472;28;20455;-69
2022/08/07 02:49:21;;;;;;;7.70;5.33;;;;;;;;;;5097608;28;20534;-69
2022/08/07 02:51:48;;;;;;;9.60;5.30;;;;;;;;;;5097973;28;20851;-68
2022/08/07 02:54:17;;;;;;;9.03;5.93;;;;;;;;;;5097539;28;20463;-69
2022/08/07 02:56:44;;;;;;;10.13;5.73;;;;;;;;;;5097563;28;20479;-69
2022/08/07 02:59:12;;;;;;;8.37;5.47;;;;;;;;;;5097170;28;20443;-69
2022/08/07 03:01:39;;;;;;;16.20;6.33;;;;;;;;;;5097497;28;20724;-69
2022/08/07 03:04:07;;;;;;;8.53;5.60;;;;;;;;;;5097575;28;20478;-69
2022/08/07 03:06:35;;;;;;;7.73;5.67;;;;;;;;;;5097864;28;20890;-69
2022/08/07 03:09:03;;;;;;;9.60;5.87;;;;;;;;;;5097294;28;20867;-68
2022/08/07 03:11:34;;;;;;;13.00;6.30;;;;;;;;;;5097658;28;20470;-69
2022/08/07 03:14:02;;;;;;;8.00;5.33;;;;;;;;;;5097046;28;20943;-68
2022/08/07 03:16:33;;;;;;;7.43;5.07;;;;;;;;;;5097048;28;20465;-68
2022/08/07 03:19:00;;;;;;;9.60;6.70;;;;;;;;;;5096835;28;20444;-70
2022/08/07 03:21:27;;;;;;;7.50;5.63;;;;;;;;;;5097360;28;21050;-70
2022/08/07 03:23:56;;;;;;;9.27;6.10;;;;;;;;;;5097066;28;20440;-69
2022/08/07 03:26:25;;;;;;;8.43;6.37;;;;;;;;;;5097156;28;20463;-69
2022/08/07 03:28:52;;;;;;;10.60;5.80;;;;;;;;;;5097531;28;20912;-69
2022/08/07 03:31:22;;;;;;;7.20;4.87;;;;;;;;;;5096823;28;20524;-69
2022/08/07 03:33:56;;;;;;;9.00;6.27;;;;;;;;;;5097046;28;20454;-69
2022/08/07 03:36:24;;;;;;;10.73;6.37;;;;;;;;;;5097237;28;20462;-69
2022/08/07 03:38:53;;;;;;;8.00;6.00;;;;;;;;;;5096932;28;20452;-70
2022/08/07 03:41:23;;;;;;;7.53;5.60;;;;;;;;;;5095605;28;20528;-69
2022/08/07 03:43:53;;;;;;;7.47;5.20;;;;;;;;;;5096919;28;20516;-69
2022/08/07 03:46:20;;;;;;;12.70;6.53;;;;;;;;;;5098006;28;20520;-69
2022/08/07 03:48:48;;;;;;;5.67;4.23;;;;;;;;;;5096714;28;20862;-69
2022/08/07 03:51:15;;;;;;;9.90;6.30;;;;;;;;;;5097138;28;20886;-69
2022/08/07 03:53:42;;;;;;;8.20;5.20;;;;;;;;;;5096721;28;20922;-69
2022/08/07 03:56:11;;;;;;;9.27;6.47;;;;;;;;;;5096899;28;20455;-69
2022/08/07 03:58:39;;;;;;;8.00;5.57;;;;;;;;;;5096790;28;20585;-69
2022/08/07 04:01:06;;;;;;;9.40;5.73;;;;;;;;;;5096671;28;20572;-69
2022/08/07 04:03:34;;;;;;;9.40;6.80;;;;;;;;;;5096525;28;20447;-69
2022/08/07 04:06:01;;;;;;;13.60;5.83;;;;;;;;;;5096664;28;20451;-69
2022/08/07 04:08:28;;;;;;;8.53;6.10;;;;;;;;;;5096902;28;20477;-69
2022/08/07 04:10:56;;;;;;;8.43;5.77;;;;;;;;;;5096357;28;20544;-69
2022/08/07 04:13:24;;;;;;;7.53;4.83;;;;;;;;;;5096612;28;20471;-69
2022/08/07 04:15:55;;;;;;;9.83;6.77;;;;;;;;;;5096396;28;20460;-69
2022/08/07 04:18:22;;;;;;;10.30;6.00;;;;;;;;;;5096616;28;20495;-69
2022/08/07 04:20:52;;;;;;;7.97;5.43;;;;;;;;;;5096593;28;20452;-69
2022/08/07 04:23:20;;;;;;;10.20;6.67;;;;;;;;;;5096718;28;20697;-69
2022/08/07 04:25:47;;;;;;;9.70;6.03;;;;;;;;;;5096400;28;20467;-69
2022/08/07 04:28:17;;;;;;;10.70;6.23;;;;;;;;;;5096680;28;20452;-69
2022/08/07 04:30:47;;;;;;;8.57;5.70;;;;;;;;;;5096553;28;20766;-69
2022/08/07 04:33:16;;;;;;;11.40;6.83;;;;;;;;;;5096137;28;20458;-69
2022/08/07 04:35:45;;;;;;;8.67;5.63;;;;;;;;;;5096647;28;20470;-69
2022/08/07 04:38:12;;;;;;;10.17;5.80;;;;;;;;;;5096314;28;20499;-69
2022/08/07 04:40:41;;;;;;;9.90;6.67;;;;;;;;;;5096274;28;20480;-69
2022/08/07 04:43:08;;;;;;;10.57;5.87;;;;;;;;;;5095819;28;20455;-69
2022/08/07 04:45:41;;;;;;;10.03;7.60;;;;;;;;;;5096210;28;20466;-69
2022/08/07 04:48:21;;;;;;;13.03;7.73;;;;;;;;;;5096034;28;20462;-69
2022/08/07 04:50:53;;;;;;;9.70;6.17;;;;;;;;;;5093427;28;20455;-69
2022/08/07 04:53:21;;;;;;;16.27;6.83;;;;;;;;;;5095297;28;20505;-69
2022/08/07 04:55:51;;;;;;;8.23;5.50;;;;;;;;;;5091124;28;20475;-70
2022/08/07 04:58:20;;;;;;;8.80;6.03;;;;;;;;;;5094237;28;20479;-70
2022/08/07 05:00:50;;;;;;;7.03;5.43;;;;;;;;;;5096842;28;20512;-70
2022/08/07 05:03:21;;;;;;;8.23;5.50;;;;;;;;;;5095754;28;21099;-69
2022/08/07 05:05:51;;;;;;;10.60;7.53;;;;;;;;;;5096491;28;20459;-70
2022/08/07 05:08:22;;;;;;;9.40;6.10;;;;;;;;;;5096109;28;20482;-70
2022/08/07 05:10:52;;;;;;;9.30;6.67;;;;;;;;;;5096264;28;20463;-70
2022/08/07 05:13:21;;;;;;;10.83;5.33;;;;;;;;;;5095668;28;20472;-70
2022/08/07 05:15:51;;;;;;;7.37;5.33;;;;;;;;;;5096021;28;20546;-70
2022/08/07 05:18:21;;;;;;;9.83;5.13;;;;;;;;;;5095686;28;20628;-70
2022/08/07 05:20:50;;;;;;;8.20;5.10;;;;;;;;;;5096978;28;20552;-71
2022/08/07 05:23:19;;;;;;;7.17;4.93;;;;;;;;;;5095187;28;20462;-70
2022/08/07 05:25:47;;;;;;;7.17;5.60;;;;;;;;;;5094875;28;20863;-70
2022/08/07 05:28:15;;;;;;;9.77;5.40;;;;;;;;;;5095559;28;20520;-70
2022/08/07 05:30:42;;;;;;;6.20;4.63;;;;;;;;;;5095651;28;20463;-70
2022/08/07 05:33:10;;;;;;;6.87;5.23;;;;;;;;;;5095369;28;20447;-69
2022/08/07 05:35:39;;;;;;;6.50;4.83;;;;;;;;;;5094872;28;20494;-69
2022/08/07 05:38:07;;;;;;;8.30;5.00;;;;;;;;;;5095485;28;20922;-69
2022/08/07 05:40:37;;;;;;;7.10;5.33;;;;;;;;;;5095199;28;20451;-69
2022/08/07 05:43:04;;;;;;;6.37;5.00;;;;;;;;;;5094929;28;20460;-69
2022/08/07 05:45:31;;;;;;;6.77;4.57;;;;;;;;;;5095738;28;20458;-69
2022/08/07 05:47:59;;;;;;;10.80;6.10;;;;;;;;;;5095292;28;20471;-69
2022/08/07 05:50:26;;;;;;;8.90;5.67;;;;;;;;;;5095484;28;20455;-69
2022/08/07 05:52:54;;;;;;;7.57;5.33;;;;;;;;;;5095280;28;20459;-68
2022/08/07 05:55:24;;;;;;;7.37;6.00;;;;;;;;;;5095628;28;20460;-68
2022/08/07 05:57:53;;;;;;;19.17;17.83;;;;;;;;;;5095391;28;20549;-69
2022/08/07 06:00:20;;;;;;;10.83;9.70;;;;;;;;;;5094477;28;20522;-69
2022/08/07 06:02:49;;;;;;;6.47;4.77;;;;;;;;;;5095370;28;20547;-69
2022/08/07 06:05:17;;;;;;;6.77;4.83;;;;;;;;;;5097404;28;20451;-69
2022/08/07 06:07:50;;;;;;;7.20;5.23;;;;;;;;;;5097102;28;20503;-69
2022/08/07 06:10:18;;;;;;;6.67;4.73;;;;;;;;;;5099026;28;20663;-68
2022/08/07 06:12:46;;;;;;;8.30;5.80;;;;;;;;;;5096697;28;20451;-69
2022/08/07 06:15:15;;;;;;;7.43;5.57;;;;;;;;;;5097333;28;20483;-68
2022/08/07 06:17:43;;;;;;;8.93;5.57;;;;;;;;;;5096770;28;20880;-69
2022/08/07 06:20:10;;;;;;;7.30;4.87;;;;;;;;;;5097067;28;20451;-68
2022/08/07 06:22:38;;;;;;;14.93;5.80;;;;;;;;;;5096523;28;20703;-69
2022/08/07 06:25:05;;;;;;;10.73;4.70;;;;;;;;;;5097139;28;20576;-68
2022/08/07 06:27:34;;;;;;;7.80;4.97;;;;;;;;;;5096130;28;20735;-68
2022/08/07 06:30:01;;;;;;;7.50;4.70;;;;;;;;;;5096818;28;20456;-69
2022/08/07 06:32:28;;;;;;;12.40;5.47;;;;;;;;;;5096186;28;20454;-69
2022/08/07 06:34:55;;;;;;;6.97;4.40;;;;;;;;;;5096682;28;20746;-69
2022/08/07 06:37:23;;;;;;;5.30;4.20;;;;;;;;;;5097387;28;20606;-69
2022/08/07 06:39:52;;;;;;;12.50;3.90;;;;;;;;;;5095745;28;20496;-70
2022/08/07 06:42:20;;;;;;;8.37;4.80;;;;;;;;;;5096485;28;20455;-70
2022/08/07 06:44:49;;;;;;;5.27;3.97;;;;;;;;;;5097087;28;20448;-71
2022/08/07 06:47:17;;;;;;;5.63;3.33;;;;;;;;;;5096532;28;20456;-69
2022/08/07 06:49:44;;;;;;;5.20;3.37;;;;;;;;;;5096579;28;20452;-70
2022/08/07 06:52:13;;;;;;;5.43;3.47;;;;;;;;;;5096642;28;20454;-70
2022/08/07 06:54:41;;;;;;;4.07;2.97;;;;;;;;;;5096448;28;20483;-70
2022/08/07 06:57:08;;;;;;;6.40;3.50;;;;;;;;;;5095516;28;20472;-70
2022/08/07 06:59:38;;;;;;;6.67;3.70;;;;;;;;;;5096437;28;20448;-70
2022/08/07 07:02:08;;;;;;;4.73;3.30;;;;;;;;;;5097607;28;20459;-70
2022/08/07 07:04:36;;;;;;;6.40;3.03;;;;;;;;;;5093308;28;20789;-70
2022/08/07 07:07:06;;;;;;;4.80;3.00;;;;;;;;;;5097041;28;21029;-70
2022/08/07 07:09:33;;;;;;;7.40;2.80;;;;;;;;;;5095360;28;20862;-70
2022/08/07 07:12:21;;;;;;;4.63;2.93;;;;;;;;;;5097117;28;20530;-70
2022/08/07 07:14:52;;;;;;;4.57;2.80;;;;;;;;;;5079158;28;20739;-70
2022/08/07 07:17:22;;;;;;;3.13;1.97;;;;;;;;;;5094195;28;20494;-70
2022/08/07 07:19:53;;;;;;;4.40;3.20;;;;;;;;;;5096503;28;20497;-70
2022/08/07 07:22:20;;;;;;;6.00;3.23;;;;;;;;;;5097631;28;20520;-71
2022/08/07 07:24:49;;;;;;;3.30;2.03;;;;;;;;;;5096481;28;20739;-71
2022/08/07 07:27:17;;;;;;;3.40;2.20;;;;;;;;;;5096635;28;21019;-71
2022/08/07 07:29:48;;;;;;;4.63;2.57;;;;;;;;;;5096126;28;20789;-71
2022/08/07 07:32:16;;;;;;;5.10;2.37;;;;;;;;;;5076251;28;20448;-70
2022/08/07 07:34:44;;;;;;;4.90;3.50;;;;;;;;;;5076002;28;20547;-69
2022/08/07 07:37:13;;;;;;;3.50;2.60;;;;;;;;;;5075138;28;20914;-70
2022/08/07 07:39:41;;;;;;;6.73;2.10;;;;;;;;;;5076408;28;20460;-71
2022/08/07 07:42:09;;;;;;;8.57;3.43;;;;;;;;;;5076228;28;20463;-70
2022/08/07 07:44:38;;;;;;;8.17;2.77;;;;;;;;;;5076212;28;20460;-70
2022/08/07 07:47:06;;;;;;;4.53;2.40;;;;;;;;;;5077053;28;20463;-70
2022/08/07 07:49:35;;;;;;;9.07;3.50;;;;;;;;;;5075489;28;20459;-70
2022/08/07 07:52:03;;;;;;;3.40;2.20;;;;;;;;;;5075523;28;20464;-70
2022/08/07 07:54:31;;;;;;;4.90;3.00;;;;;;;;;;5077188;28;20877;-71
2022/08/07 07:56:59;;;;;;;4.97;3.10;;;;;;;;;;5090526;28;20723;-70
2022/08/07 07:59:27;;;;;;;5.30;3.77;;;;;;;;;;5086486;28;20537;-70
2022/08/07 08:01:54;;;;;;;4.87;3.00;;;;;;;;;;5074218;28;20459;-70
2022/08/07 08:04:23;;;;;;;5.90;2.63;;;;;;;;;;5074425;28;20518;-70
2022/08/07 08:06:52;;;;;;;4.30;3.03;;;;;;;;;;5074693;28;20629;-70
2022/08/07 08:09:25;;;;;;;7.40;3.20;;;;;;;;;;5074357;28;20531;-71
2022/08/07 08:11:53;;;;;;;6.60;3.20;;;;;;;;;;5076504;28;20448;-70
2022/08/07 08:14:21;;;;;;;6.50;3.53;;;;;;;;;;5074234;28;20441;-70
2022/08/07 08:16:49;;;;;;;4.37;3.03;;;;;;;;;;5075195;28;20961;-70
2022/08/07 08:19:17;;;;;;;4.23;3.10;;;;;;;;;;5085027;28;20530;-71
2022/08/07 08:27:22;;;;;;;5.53;2.60;;;;;;;;;;5093895;28;21042;-70
2022/08/07 08:29:51;;;;;;;7.40;3.30;;;;;;;;;;5092839;28;20558;-71
2022/08/07 08:32:20;;;;;;;4.90;3.40;;;;;;;;;;5094486;28;21089;-71
2022/08/07 08:34:48;;;;;;;6.07;2.87;;;;;;;;;;5094060;28;20528;-71
2022/08/07 08:37:16;;;;;;;4.60;3.10;;;;;;;;;;5093788;28;20483;-70
2022/08/07 08:39:45;;;;;;;5.93;4.67;;;;;;;;;;5092958;28;20520;-71
2022/08/07 08:42:17;;;;;;;5.00;3.63;;;;;;;;;;5092735;28;20462;-70
2022/08/07 08:44:48;;;;;;;5.63;3.60;;;;;;;;;;5092397;28;20539;-70
2022/08/07 08:47:20;;;;;;;5.53;2.80;;;;;;;;;;5092996;28;20451;-70
2022/08/07 08:49:50;;;;;;;4.20;3.40;;;;;;;;;;5093418;28;20743;-70
2022/08/07 08:52:20;;;;;;;5.33;2.97;;;;;;;;;;5092768;28;20443;-70
2022/08/07 08:54:52;;;;;;;4.30;3.37;;;;;;;;;;5091836;28;20954;-70
2022/08/07 08:57:26;;;;;;;5.97;3.50;;;;;;;;;;5092184;28;20548;-70
2022/08/07 08:59:57;;;;;;;5.80;3.13;;;;;;;;;;5092661;28;20891;-71
2022/08/07 09:02:27;;;;;;;4.90;3.20;;;;;;;;;;5093717;28;20459;-71
2022/08/07 09:04:58;;;;;;;8.93;4.03;;;;;;;;;;5093163;28;20690;-71
2022/08/07 09:07:29;;;;;;;3.60;2.80;;;;;;;;;;5092687;28;20456;-69
2022/08/07 09:10:02;;;;;;;5.20;3.30;;;;;;;;;;5093007;28;20456;-71
2022/08/07 09:12:43;;;;;;;4.00;2.60;;;;;;;;;;5091708;28;20860;-70
2022/08/07 09:15:18;;;;;;;4.90;3.10;;;;;;;;;;5093649;28;20460;-72
2022/08/07 09:17:49;;;;;;;4.10;2.73;;;;;;;;;;5093853;28;20576;-71
2022/08/07 09:20:27;;;;;;;4.03;2.87;;;;;;;;;;5093146;28;20536;-71
2022/08/07 09:22:57;;;;;;;4.20;2.80;;;;;;;;;;5093516;28;20486;-69
2022/08/07 09:25:27;;;;;;;6.57;3.30;;;;;;;;;;5091711;28;20459;-69
2022/08/07 09:28:00;;;;;;;4.13;2.77;;;;;;;;;;5091448;28;20465;-69
2022/08/07 09:30:29;;;;;;;4.07;3.00;;;;;;;;;;5091727;28;20773;-71
2022/08/07 09:33:04;;;;;;;4.53;3.07;;;;;;;;;;5092527;28;20443;-71
2022/08/07 09:35:37;;;;;;;4.10;2.50;;;;;;;;;;5092421;28;20469;-71
2022/08/07 09:38:13;;;;;;;5.63;2.70;;;;;;;;;;5086607;28;20475;-71
2022/08/07 09:40:52;;;;;;;5.43;2.37;;;;;;;;;;5076751;28;20448;-71
2022/08/07 09:43:24;;;;;;;5.23;2.90;;;;;;;;;;5088505;28;20459;-71
2022/08/07 09:45:59;;;;;;;5.07;2.63;;;;;;;;;;5096360;28;20485;-71
2022/08/07 09:48:31;;;;;;;7.30;5.10;;;;;;;;;;5095199;28;20463;-71
2022/08/07 09:51:03;;;;;;;4.90;2.97;;;;;;;;;;5095649;28;20538;-71
2022/08/07 09:53:37;;;;;;;6.80;3.30;;;;;;;;;;5096866;27;20833;-71
2022/08/07 09:56:17;;;;;;;6.67;3.03;;;;;;;;;;5114506;28;20614;-70
2022/08/07 09:59:10;;;;;;;4.27;2.87;;;;;;;;;;5114463;28;20584;-70
2022/08/07 10:01:41;;;;;;;5.40;3.17;;;;;;;;;;5103038;28;20956;-70
2022/08/07 10:04:25;;;;;;;4.17;3.13;;;;;;;;;;5083818;28;20566;-71
2022/08/07 10:07:09;;;;;;;4.70;2.70;;;;;;;;;;5095919;28;20443;-71
2022/08/07 10:09:44;;;;;;;3.50;2.30;;;;;;;;;;5056263;28;20740;-70
2022/08/07 10:12:18;;;;;;;4.27;3.00;;;;;;;;;;5116478;27;20998;-70
2022/08/07 10:14:59;;;;;;;3.80;2.47;;;;;;;;;;5117418;27;20464;-70
2022/08/07 10:17:39;;;;;;;4.73;2.57;;;;;;;;;;5116675;27;20489;-70
2022/08/07 10:20:11;;;;;;;4.27;3.00;;;;;;;;;;5117281;27;20446;-71
2022/08/07 10:22:47;;;;;;;4.70;3.30;;;;;;;;;;5092847;28;20458;-71
2022/08/07 10:25:23;;;;;;;5.10;3.17;;;;;;;;;;5091443;28;20468;-71
2022/08/07 10:28:10;;;;;;;3.47;2.90;;;;;;;;;;5078854;28;20463;-71
2022/08/07 10:30:57;;;;;;;5.80;3.13;;;;;;;;;;5093328;28;20486;-71
2022/08/07 10:33:39;;;;;;;4.53;3.00;;;;;;;;;;5092849;28;20468;-70
2022/08/07 10:36:15;;;;;;;6.07;3.13;;;;;;;;;;5076591;28;20891;-71
2022/08/07 10:38:50;;;;;;;3.70;2.57;;;;;;;;;;5080076;28;20561;-71
2022/08/07 10:41:21;;;;;;;4.30;2.80;;;;;;;;;;5109630;27;20723;-70
2022/08/07 10:43:56;;;;;;;4.10;3.00;;;;;;;;;;5094507;28;20867;-71
2022/08/07 10:46:40;;;;;;;6.63;3.60;;;;;;;;;;5076161;28;20464;-71
2022/08/07 10:49:13;;;;;;;5.80;2.90;;;;;;;;;;5074926;28;20448;-71
2022/08/07 10:51:47;;;;;;;2.83;2.27;;;;;;;;;;5082449;28;20443;-71
2022/08/07 10:54:17;;;;;;;4.33;2.83;;;;;;;;;;5076003;28;20452;-71
2022/08/07 10:56:49;;;;;;;3.60;2.30;;;;;;;;;;5076516;28;20547;-70
2022/08/07 10:59:27;;;;;;;3.47;1.87;;;;;;;;;;5075527;28;21079;-70
2022/08/07 11:01:57;;;;;;;4.00;2.80;;;;;;;;;;5075135;28;20517;-71
2022/08/07 11:04:29;;;;;;;4.67;2.70;;;;;;;;;;5074777;28;20605;-71
2022/08/07 11:07:01;;;;;;;4.43;2.80;;;;;;;;;;5075194;28;20468;-70
2022/08/07 11:09:31;;;;;;;6.73;2.80;;;;;;;;;;5093486;28;20513;-70
2022/08/07 11:12:01;;;;;;;3.80;2.37;;;;;;;;;;5096750;28;20452;-71
2022/08/07 11:14:30;;;;;;;5.80;3.47;;;;;;;;;;5078749;28;20456;-71
2022/08/07 11:17:00;;;;;;;5.27;3.27;;;;;;;;;;5075731;28;20494;-71
2022/08/07 11:19:34;;;;;;;4.53;3.07;;;;;;;;;;5085874;28;20733;-71
2022/08/07 11:22:07;;;;;;;3.80;2.80;;;;;;;;;;5094829;28;20497;-71
2022/08/07 11:24:38;;;;;;;3.90;2.60;;;;;;;;;;5074108;28;20535;-70
2022/08/07 11:27:31;;;;;;;3.80;2.80;;;;;;;;;;5074360;28;20936;-70
2022/08/07 11:30:01;;;;;;;5.10;3.10;;;;;;;;;;5076211;28;20455;-70
2022/08/07 11:32:37;;;;;;;6.63;2.37;;;;;;;;;;5076913;28;20474;-71
2022/08/07 11:35:08;;;;;;;4.87;3.10;;;;;;;;;;5083555;28;20775;-71
2022/08/07 11:37:41;;;;;;;4.80;3.00;;;;;;;;;;5083437;28;20496;-70
2022/08/07 11:40:13;;;;;;;3.70;2.53;;;;;;;;;;5081129;28;20460;-71
2022/08/07 11:42:45;;;;;;;4.93;2.37;;;;;;;;;;5074403;28;20472;-70
2022/08/07 11:45:26;;;;;;;3.30;2.13;;;;;;;;;;5074608;28;20463;-70
2022/08/07 11:48:13;;;;;;;4.20;3.07;;;;;;;;;;5075906;28;20896;-71
2022/08/07 11:50:45;;;;;;;8.20;2.90;;;;;;;;;;5074440;28;20543;-70
2022/08/07 11:53:17;;;;;;;4.43;2.90;;;;;;;;;;5073962;28;20460;-70
2022/08/07 11:55:55;;;;;;;3.67;2.70;;;;;;;;;;5074070;28;20533;-70
2022/08/07 11:58:30;;;;;;;5.20;2.70;;;;;;;;;;5072855;28;20511;-71
2022/08/07 12:01:02;;;;;;;3.50;2.30;;;;;;;;;;5073314;28;20467;-70
2022/08/07 12:03:47;;;;;;;4.63;2.97;;;;;;;;;;5090828;28;20467;-70
2022/08/07 12:06:28;;;;;;;4.43;3.07;;;;;;;;;;5097541;27;20506;-70
2022/08/07 12:09:03;;;;;;;4.83;2.40;;;;;;;;;;5085185;28;20476;-70
2022/08/07 12:11:35;;;;;;;5.63;2.93;;;;;;;;;;5073135;28;20439;-71
2022/08/07 12:14:07;;;;;;;4.87;3.00;;;;;;;;;;5083899;28;20562;-72
2022/08/07 12:16:36;;;;;;;3.53;2.33;;;;;;;;;;5094254;28;20463;-71
2022/08/07 12:19:09;;;;;;;3.70;2.53;;;;;;;;;;5092828;28;20525;-71
2022/08/07 12:21:45;;;;;;;6.30;3.47;;;;;;;;;;5093404;28;20454;-71
2022/08/07 12:24:18;;;;;;;5.27;2.97;;;;;;;;;;5095395;28;20472;-70
2022/08/07 12:26:49;;;;;;;3.33;2.20;;;;;;;;;;5094224;28;20498;-70
2022/08/07 12:29:19;;;;;;;3.70;2.30;;;;;;;;;;5096443;28;20471;-70
2022/08/07 12:31:50;;;;;;;7.80;2.93;;;;;;;;;;5093475;28;20464;-70
2022/08/07 12:34:20;;;;;;;4.30;2.50;;;;;;;;;;5093999;28;20448;-69
2022/08/07 12:36:49;;;;;;;7.63;2.87;;;;;;;;;;5109344;27;20455;-71
2022/08/07 12:39:16;;;;;;;4.00;2.57;;;;;;;;;;5114553;27;20569;-71
2022/08/07 12:41:44;;;;;;;4.47;2.60;;;;;;;;;;5109903;27;20459;-71
2022/08/07 12:44:13;;;;;;;6.90;4.67;;;;;;;;;;5097596;28;20902;-71
2022/08/07 12:46:47;;;;;;;5.07;2.53;;;;;;;;;;5094716;28;20848;-71
2022/08/07 12:49:21;;;;;;;4.93;3.20;;;;;;;;;;5093400;28;20447;-70
2022/08/07 12:51:58;;;;;;;3.20;2.23;;;;;;;;;;5092354;28;20451;-70
2022/08/07 12:54:29;;;;;;;3.13;2.30;;;;;;;;;;5092824;28;20913;-71
2022/08/07 12:56:58;;;;;;;4.40;2.87;;;;;;;;;;5087593;28;20445;-71
2022/08/07 12:59:27;;;;;;;3.90;2.53;;;;;;;;;;5073933;28;20674;-71
2022/08/07 13:01:59;;;;;;;6.13;2.90;;;;;;;;;;5073588;28;20845;-71
2022/08/07 13:04:31;;;;;;;4.20;2.80;;;;;;;;;;5074173;28;20480;-71
2022/08/07 13:07:16;;;;;;;3.80;2.50;;;;;;;;;;5074685;28;20443;-71
2022/08/07 13:09:51;;;;;;;2.93;1.97;;;;;;;;;;5073043;28;20558;-73
2022/08/07 13:12:22;;;;;;;5.03;3.20;;;;;;;;;;5072976;28;20522;-71
2022/08/07 13:14:54;;;;;;;4.30;2.60;;;;;;;;;;5070748;28;20448;-70
2022/08/07 13:17:24;;;;;;;3.80;2.90;;;;;;;;;;5071262;28;20556;-70
2022/08/07 13:19:57;;;;;;;3.90;3.23;;;;;;;;;;5071555;28;20732;-70
2022/08/07 13:22:30;;;;;;;4.03;2.80;;;;;;;;;;5071021;28;20496;-71
2022/08/07 13:24:58;;;;;;;4.40;2.57;;;;;;;;;;5071472;28;20824;-71
2022/08/07 13:27:28;;;;;;;3.87;2.70;;;;;;;;;;5099229;27;20459;-71
2022/08/07 13:29:57;;;;;;;6.30;5.63;;;;;;;;;;5072726;28;20939;-71
2022/08/07 13:32:27;;;;;;;9.80;6.93;;;;;;;;;;5076946;28;20855;-71
2022/08/07 13:34:56;;;;;;;3.37;2.27;;;;;;;;;;5093112;28;20451;-71
2022/08/07 13:37:28;;;;;;;3.83;2.43;;;;;;;;;;5092877;28;20519;-72
2022/08/07 13:40:03;;;;;;;4.33;2.47;;;;;;;;;;5092296;28;20470;-71
2022/08/07 13:42:33;;;;;;;5.10;4.03;;;;;;;;;;5091620;28;20455;-71
2022/08/07 13:45:05;;;;;;;3.30;2.43;;;;;;;;;;5093461;28;20974;-71
2022/08/07 13:47:36;;;;;;;4.00;1.90;;;;;;;;;;5094003;28;20478;-70
2022/08/07 13:50:04;;;;;;;4.50;2.67;;;;;;;;;;5091987;28;20455;-71
2022/08/07 13:52:33;;;;;;;5.10;2.83;;;;;;;;;;5091767;28;20511;-71
2022/08/07 13:55:06;;;;;;;3.60;2.40;;;;;;;;;;5091408;28;20916;-70
2022/08/07 13:57:35;;;;;;;3.53;2.33;;;;;;;;;;5090253;28;20459;-71
2022/08/07 14:00:04;;;;;;;6.03;2.40;;;;;;;;;;5090322;28;20460;-70
2022/08/07 14:02:34;;;;;;;3.50;2.53;;;;;;;;;;5089373;28;20454;-71
2022/08/07 14:05:05;;;;;;;3.30;1.90;;;;;;;;;;5090433;28;20566;-70
2022/08/07 14:07:38;;;;;;;6.17;2.70;;;;;;;;;;5089281;28;20720;-70
2022/08/07 14:10:05;;;;;;;5.00;2.50;;;;;;;;;;5091654;28;20730;-70
2022/08/07 14:12:40;;;;;;;4.43;2.40;;;;;;;;;;5086528;28;20463;-71
2022/08/07 14:15:09;;;;;;;4.63;2.30;;;;;;;;;;5092777;28;20466;-69
2022/08/07 14:17:38;;;;;;;4.03;2.43;;;;;;;;;;5092580;28;20448;-71
2022/08/07 14:20:08;;;;;;;5.30;2.53;;;;;;;;;;5076731;28;20471;-71
2022/08/07 14:22:38;;;;;;;3.60;2.23;;;;;;;;;;5071556;28;20967;-71
2022/08/07 14:25:08;;;;;;;3.83;2.43;;;;;;;;;;5072594;28;20780;-70
2022/08/07 14:27:38;;;;;;;4.30;3.00;;;;;;;;;;5079509;28;20447;-71
2022/08/07 14:30:07;;;;;;;4.07;2.67;;;;;;;;;;5076330;28;20953;-71
2022/08/07 14:32:44;;;;;;;4.20;2.83;;;;;;;;;;5077595;28;20565;-70
2022/08/07 14:35:18;;;;;;;6.60;2.70;;;;;;;;;;5093851;28;20584;-71
2022/08/07 14:37:48;;;;;;;4.23;2.50;;;;;;;;;;5095755;28;20730;-69
2022/08/07 14:40:17;;;;;;;4.73;2.60;;;;;;;;;;5092893;28;20550;-71
2022/08/07 14:42:45;;;;;;;3.33;2.13;;;;;;;;;;5092549;28;20452;-71
2022/08/07 14:45:13;;;;;;;3.37;2.17;;;;;;;;;;5092885;28;20912;-70
2022/08/07 14:47:42;;;;;;;4.10;2.40;;;;;;;;;;5091413;28;20502;-70
2022/08/07 14:50:17;;;;;;;4.30;2.87;;;;;;;;;;5095056;28;20534;-71
2022/08/07 14:52:46;;;;;;;5.10;3.20;;;;;;;;;;5113833;27;20497;-71
2022/08/07 14:55:18;;;;;;;3.80;3.00;;;;;;;;;;5089547;28;20548;-71
2022/08/07 14:57:47;;;;;;;4.07;2.80;;;;;;;;;;5093472;28;22066;-72
2022/08/07 15:00:16;;;;;;;4.13;2.80;;;;;;;;;;5075964;28;20460;-71
2022/08/07 15:02:47;;;;;;;10.40;2.93;;;;;;;;;;5080663;28;20579;-71
2022/08/07 15:05:17;;;;;;;3.90;2.60;;;;;;;;;;5115611;27;21103;-71